sensor_id;sensor_type;location;lat;lon;timestamp;P1;durP1;ratioP1;P2;durP2;ratioP2
78778;SDS011;68121;52.404;5.318;2023-04-24T00:00:22;4.88;;;2.75;;
78778;SDS011;68121;52.404;5.318;2023-04-24T00:02:48;2.80;;;2.30;;
78778;SDS011;68121;52.404;5.318;2023-04-24T00:05:14;3.72;;;2.40;;
78778;SDS011;68121;52.404;5.318;2023-04-24T00:07:43;3.30;;;2.00;;
78778;SDS011;68121;52.404;5.318;2023-04-24T00:10:10;4.50;;;3.03;;
78778;SDS011;68121;52.404;5.318;2023-04-24T00:12:37;3.90;;;2.67;;
78778;SDS011;68121;52.404;5.318;2023-04-24T00:15:04;4.53;;;2.97;;
78778;SDS011;68121;52.404;5.318;2023-04-24T00:17:30;4.80;;;3.47;;
78778;SDS011;68121;52.404;5.318;2023-04-24T00:19:56;4.85;;;3.60;;
78778;SDS011;68121;52.404;5.318;2023-04-24T00:22:26;6.25;;;3.47;;
78778;SDS011;68121;52.404;5.318;2023-04-24T00:24:53;4.85;;;3.88;;
78778;SDS011;68121;52.404;5.318;2023-04-24T00:27:20;5.93;;;3.72;;
78778;SDS011;68121;52.404;5.318;2023-04-24T00:29:46;5.85;;;4.40;;
78778;SDS011;68121;52.404;5.318;2023-04-24T00:32:12;6.45;;;4.80;;
78778;SDS011;68121;52.404;5.318;2023-04-24T00:34:39;7.20;;;4.53;;
78778;SDS011;68121;52.404;5.318;2023-04-24T00:37:06;7.07;;;4.43;;
78778;SDS011;68121;52.404;5.318;2023-04-24T00:39:32;6.40;;;4.53;;
78778;SDS011;68121;52.404;5.318;2023-04-24T00:41:58;8.00;;;5.25;;
78778;SDS011;68121;52.404;5.318;2023-04-24T00:44:24;5.68;;;4.05;;
78778;SDS011;68121;52.404;5.318;2023-04-24T00:46:50;6.45;;;4.18;;
78778;SDS011;68121;52.404;5.318;2023-04-24T00:49:20;7.32;;;4.70;;
78778;SDS011;68121;52.404;5.318;2023-04-24T00:51:47;5.90;;;4.93;;
78778;SDS011;68121;52.404;5.318;2023-04-24T00:54:14;7.18;;;4.70;;
78778;SDS011;68121;52.404;5.318;2023-04-24T00:56:41;8.55;;;5.57;;
78778;SDS011;68121;52.404;5.318;2023-04-24T00:59:08;8.15;;;5.32;;
78778;SDS011;68121;52.404;5.318;2023-04-24T01:01:34;6.70;;;4.70;;
78778;SDS011;68121;52.404;5.318;2023-04-24T01:04:01;8.57;;;5.88;;
78778;SDS011;68121;52.404;5.318;2023-04-24T01:06:28;7.97;;;5.22;;
78778;SDS011;68121;52.404;5.318;2023-04-24T01:08:57;4.63;;;2.75;;
78778;SDS011;68121;52.404;5.318;2023-04-24T01:11:24;3.47;;;2.47;;
78778;SDS011;68121;52.404;5.318;2023-04-24T01:13:51;2.17;;;1.48;;
78778;SDS011;68121;52.404;5.318;2023-04-24T01:16:18;2.47;;;0.93;;
78778;SDS011;68121;52.404;5.318;2023-04-24T01:18:46;1.20;;;0.80;;
78778;SDS011;68121;52.404;5.318;2023-04-24T01:21:13;1.75;;;0.50;;
78778;SDS011;68121;52.404;5.318;2023-04-24T01:23:45;0.43;;;0.30;;
78778;SDS011;68121;52.404;5.318;2023-04-24T01:26:12;0.20;;;0.20;;
78778;SDS011;68121;52.404;5.318;2023-04-24T01:28:39;0.55;;;0.17;;
78778;SDS011;68121;52.404;5.318;2023-04-24T01:31:05;0.45;;;0.20;;
78778;SDS011;68121;52.404;5.318;2023-04-24T01:33:31;0.50;;;0.25;;
78778;SDS011;68121;52.404;5.318;2023-04-24T01:35:58;0.35;;;0.20;;
78778;SDS011;68121;52.404;5.318;2023-04-24T01:38:24;0.95;;;0.35;;
78778;SDS011;68121;52.404;5.318;2023-04-24T01:40:50;1.70;;;0.60;;
78778;SDS011;68121;52.404;5.318;2023-04-24T01:43:17;1.42;;;0.50;;
78778;SDS011;68121;52.404;5.318;2023-04-24T01:45:43;1.60;;;0.73;;
78778;SDS011;68121;52.404;5.318;2023-04-24T01:48:10;2.40;;;0.90;;
78778;SDS011;68121;52.404;5.318;2023-04-24T01:50:37;1.10;;;0.85;;
78778;SDS011;68121;52.404;5.318;2023-04-24T01:53:04;1.35;;;1.00;;
78778;SDS011;68121;52.404;5.318;2023-04-24T01:55:30;2.00;;;1.00;;
78778;SDS011;68121;52.404;5.318;2023-04-24T01:57:56;1.38;;;0.70;;
78778;SDS011;68121;52.404;5.318;2023-04-24T02:00:23;1.33;;;0.52;;
78778;SDS011;68121;52.404;5.318;2023-04-24T02:02:50;6.35;;;0.40;;
78778;SDS011;68121;52.404;5.318;2023-04-24T02:05:16;0.52;;;0.40;;
78778;SDS011;68121;52.404;5.318;2023-04-24T02:07:42;0.57;;;0.38;;
78778;SDS011;68121;52.404;5.318;2023-04-24T02:10:08;0.40;;;0.25;;
78778;SDS011;68121;52.404;5.318;2023-04-24T02:12:35;0.17;;;0.17;;
78778;SDS011;68121;52.404;5.318;2023-04-24T02:15:01;0.75;;;0.40;;
78778;SDS011;68121;52.404;5.318;2023-04-24T02:17:27;0.75;;;0.30;;
78778;SDS011;68121;52.404;5.318;2023-04-24T02:19:53;1.50;;;0.47;;
78778;SDS011;68121;52.404;5.318;2023-04-24T02:22:19;0.95;;;0.30;;
78778;SDS011;68121;52.404;5.318;2023-04-24T02:24:45;8.07;;;0.45;;
78778;SDS011;68121;52.404;5.318;2023-04-24T02:27:11;0.47;;;0.22;;
78778;SDS011;68121;52.404;5.318;2023-04-24T02:29:37;2.03;;;0.35;;
78778;SDS011;68121;52.404;5.318;2023-04-24T02:32:04;1.75;;;0.22;;
78778;SDS011;68121;52.404;5.318;2023-04-24T02:34:30;0.55;;;0.22;;
78778;SDS011;68121;52.404;5.318;2023-04-24T02:36:56;0.65;;;0.17;;
78778;SDS011;68121;52.404;5.318;2023-04-24T02:39:22;0.32;;;0.10;;
78778;SDS011;68121;52.404;5.318;2023-04-24T02:41:48;0.45;;;0.10;;
78778;SDS011;68121;52.404;5.318;2023-04-24T02:44:14;0.45;;;0.20;;
78778;SDS011;68121;52.404;5.318;2023-04-24T02:46:40;0.47;;;0.20;;
78778;SDS011;68121;52.404;5.318;2023-04-24T02:49:07;0.20;;;0.10;;
78778;SDS011;68121;52.404;5.318;2023-04-24T02:51:33;1.42;;;0.50;;
78778;SDS011;68121;52.404;5.318;2023-04-24T02:53:59;0.98;;;0.20;;
78778;SDS011;68121;52.404;5.318;2023-04-24T02:56:25;0.20;;;0.15;;
78778;SDS011;68121;52.404;5.318;2023-04-24T02:58:51;0.90;;;0.43;;
78778;SDS011;68121;52.404;5.318;2023-04-24T03:01:17;0.45;;;0.30;;
78778;SDS011;68121;52.404;5.318;2023-04-24T03:03:43;1.17;;;0.40;;
78778;SDS011;68121;52.404;5.318;2023-04-24T03:06:09;0.65;;;0.20;;
78778;SDS011;68121;52.404;5.318;2023-04-24T03:08:36;1.17;;;0.30;;
78778;SDS011;68121;52.404;5.318;2023-04-24T03:11:02;1.20;;;0.30;;
78778;SDS011;68121;52.404;5.318;2023-04-24T03:13:28;0.77;;;0.60;;
78778;SDS011;68121;52.404;5.318;2023-04-24T03:15:54;1.20;;;0.30;;
78778;SDS011;68121;52.404;5.318;2023-04-24T03:18:20;0.40;;;0.20;;
78778;SDS011;68121;52.404;5.318;2023-04-24T03:20:46;0.22;;;0.20;;
78778;SDS011;68121;52.404;5.318;2023-04-24T03:23:12;0.63;;;0.20;;
78778;SDS011;68121;52.404;5.318;2023-04-24T03:25:38;0.80;;;0.30;;
78778;SDS011;68121;52.404;5.318;2023-04-24T03:28:05;0.50;;;0.20;;
78778;SDS011;68121;52.404;5.318;2023-04-24T03:30:31;0.10;;;0.10;;
78778;SDS011;68121;52.404;5.318;2023-04-24T03:32:57;0.75;;;0.20;;
78778;SDS011;68121;52.404;5.318;2023-04-24T03:35:23;0.57;;;0.20;;
78778;SDS011;68121;52.404;5.318;2023-04-24T03:37:49;1.23;;;0.30;;
78778;SDS011;68121;52.404;5.318;2023-04-24T03:40:15;0.30;;;0.20;;
78778;SDS011;68121;52.404;5.318;2023-04-24T03:42:41;0.40;;;0.30;;
78778;SDS011;68121;52.404;5.318;2023-04-24T03:45:07;0.10;;;0.00;;
78778;SDS011;68121;52.404;5.318;2023-04-24T03:47:34;1.23;;;0.25;;
78778;SDS011;68121;52.404;5.318;2023-04-24T03:50:00;1.05;;;0.20;;
78778;SDS011;68121;52.404;5.318;2023-04-24T03:52:26;0.85;;;0.20;;
78778;SDS011;68121;52.404;5.318;2023-04-24T03:54:52;0.52;;;0.20;;
78778;SDS011;68121;52.404;5.318;2023-04-24T03:57:18;1.65;;;0.28;;
78778;SDS011;68121;52.404;5.318;2023-04-24T03:59:44;0.80;;;0.30;;
78778;SDS011;68121;52.404;5.318;2023-04-24T04:02:10;0.30;;;0.13;;
78778;SDS011;68121;52.404;5.318;2023-04-24T04:04:36;0.10;;;0.10;;
78778;SDS011;68121;52.404;5.318;2023-04-24T04:07:02;0.32;;;0.20;;
78778;SDS011;68121;52.404;5.318;2023-04-24T04:09:29;0.20;;;0.10;;
78778;SDS011;68121;52.404;5.318;2023-04-24T04:11:55;0.17;;;0.10;;
78778;SDS011;68121;52.404;5.318;2023-04-24T04:14:21;0.68;;;0.32;;
78778;SDS011;68121;52.404;5.318;2023-04-24T04:16:47;0.10;;;0.10;;
78778;SDS011;68121;52.404;5.318;2023-04-24T04:19:13;0.30;;;0.13;;
78778;SDS011;68121;52.404;5.318;2023-04-24T04:21:40;0.10;;;0.10;;
78778;SDS011;68121;52.404;5.318;2023-04-24T04:24:06;0.95;;;0.20;;
78778;SDS011;68121;52.404;5.318;2023-04-24T04:26:32;0.75;;;0.25;;
78778;SDS011;68121;52.404;5.318;2023-04-24T04:28:59;0.05;;;0.05;;
78778;SDS011;68121;52.404;5.318;2023-04-24T04:31:29;0.20;;;0.10;;
78778;SDS011;68121;52.404;5.318;2023-04-24T04:33:56;0.30;;;0.10;;
78778;SDS011;68121;52.404;5.318;2023-04-24T04:36:22;0.30;;;0.20;;
78778;SDS011;68121;52.404;5.318;2023-04-24T04:38:49;0.38;;;0.20;;
78778;SDS011;68121;52.404;5.318;2023-04-24T04:41:15;1.75;;;0.30;;
78778;SDS011;68121;52.404;5.318;2023-04-24T04:43:43;0.17;;;0.10;;
78778;SDS011;68121;52.404;5.318;2023-04-24T04:46:09;0.20;;;0.15;;
78778;SDS011;68121;52.404;5.318;2023-04-24T04:48:36;0.10;;;0.10;;
78778;SDS011;68121;52.404;5.318;2023-04-24T04:51:03;0.70;;;0.20;;
78778;SDS011;68121;52.404;5.318;2023-04-24T04:53:29;0.50;;;0.43;;
78778;SDS011;68121;52.404;5.318;2023-04-24T04:55:55;1.55;;;0.20;;
78778;SDS011;68121;52.404;5.318;2023-04-24T04:58:21;0.65;;;0.20;;
78778;SDS011;68121;52.404;5.318;2023-04-24T05:00:47;0.28;;;0.13;;
78778;SDS011;68121;52.404;5.318;2023-04-24T05:03:14;0.20;;;0.10;;
78778;SDS011;68121;52.404;5.318;2023-04-24T05:05:40;0.60;;;0.20;;
78778;SDS011;68121;52.404;5.318;2023-04-24T05:08:09;0.75;;;0.25;;
78778;SDS011;68121;52.404;5.318;2023-04-24T05:10:35;0.50;;;0.20;;
78778;SDS011;68121;52.404;5.318;2023-04-24T05:13:02;0.52;;;0.25;;
78778;SDS011;68121;52.404;5.318;2023-04-24T05:15:29;0.43;;;0.30;;
78778;SDS011;68121;52.404;5.318;2023-04-24T05:17:56;0.88;;;0.30;;
78778;SDS011;68121;52.404;5.318;2023-04-24T05:20:22;1.13;;;0.30;;
78778;SDS011;68121;52.404;5.318;2023-04-24T05:22:48;0.93;;;0.70;;
78778;SDS011;68121;52.404;5.318;2023-04-24T05:25:14;1.45;;;0.38;;
78778;SDS011;68121;52.404;5.318;2023-04-24T05:27:40;2.17;;;0.50;;
78778;SDS011;68121;52.404;5.318;2023-04-24T05:30:06;1.65;;;0.70;;
78778;SDS011;68121;52.404;5.318;2023-04-24T05:32:33;1.90;;;0.73;;
78778;SDS011;68121;52.404;5.318;2023-04-24T05:35:02;0.82;;;0.50;;
78778;SDS011;68121;52.404;5.318;2023-04-24T05:37:28;1.63;;;0.60;;
78778;SDS011;68121;52.404;5.318;2023-04-24T05:39:54;1.05;;;0.38;;
78778;SDS011;68121;52.404;5.318;2023-04-24T05:42:20;1.85;;;0.60;;
78778;SDS011;68121;52.404;5.318;2023-04-24T05:44:46;2.40;;;0.85;;
78778;SDS011;68121;52.404;5.318;2023-04-24T05:47:12;1.52;;;0.47;;
78778;SDS011;68121;52.404;5.318;2023-04-24T05:49:38;1.95;;;0.70;;
78778;SDS011;68121;52.404;5.318;2023-04-24T05:52:04;1.58;;;0.55;;
78778;SDS011;68121;52.404;5.318;2023-04-24T05:54:31;3.22;;;0.68;;
78778;SDS011;68121;52.404;5.318;2023-04-24T05:56:57;0.90;;;0.40;;
78778;SDS011;68121;52.404;5.318;2023-04-24T05:59:24;2.15;;;0.50;;
78778;SDS011;68121;52.404;5.318;2023-04-24T06:01:50;1.25;;;0.57;;
78778;SDS011;68121;52.404;5.318;2023-04-24T06:04:16;4.57;;;1.33;;
78778;SDS011;68121;52.404;5.318;2023-04-24T06:06:42;12.60;;;4.80;;
78778;SDS011;68121;52.404;5.318;2023-04-24T06:09:08;11.20;;;5.20;;
78778;SDS011;68121;52.404;5.318;2023-04-24T06:11:34;11.57;;;5.28;;
78778;SDS011;68121;52.404;5.318;2023-04-24T06:14:00;12.63;;;6.32;;
78778;SDS011;68121;52.404;5.318;2023-04-24T06:16:26;11.30;;;5.45;;
78778;SDS011;68121;52.404;5.318;2023-04-24T06:18:52;12.35;;;6.43;;
78778;SDS011;68121;52.404;5.318;2023-04-24T06:21:18;9.80;;;4.82;;
78778;SDS011;68121;52.404;5.318;2023-04-24T06:23:44;11.85;;;5.63;;
78778;SDS011;68121;52.404;5.318;2023-04-24T06:26:11;12.75;;;6.05;;
78778;SDS011;68121;52.404;5.318;2023-04-24T06:28:37;10.20;;;5.70;;
78778;SDS011;68121;52.404;5.318;2023-04-24T06:31:04;11.77;;;5.25;;
78778;SDS011;68121;52.404;5.318;2023-04-24T06:33:30;10.68;;;5.07;;
78778;SDS011;68121;52.404;5.318;2023-04-24T06:35:56;10.13;;;5.80;;
78778;SDS011;68121;52.404;5.318;2023-04-24T06:38:22;10.75;;;5.82;;
78778;SDS011;68121;52.404;5.318;2023-04-24T06:40:48;6.68;;;3.95;;
78778;SDS011;68121;52.404;5.318;2023-04-24T06:43:14;8.80;;;5.20;;
78778;SDS011;68121;52.404;5.318;2023-04-24T06:45:40;12.38;;;6.07;;
78778;SDS011;68121;52.404;5.318;2023-04-24T06:48:06;13.60;;;6.70;;
78778;SDS011;68121;52.404;5.318;2023-04-24T06:50:32;14.77;;;6.22;;
78778;SDS011;68121;52.404;5.318;2023-04-24T06:52:58;15.30;;;5.88;;
78778;SDS011;68121;52.404;5.318;2023-04-24T06:55:24;14.00;;;6.47;;
78778;SDS011;68121;52.404;5.318;2023-04-24T06:57:50;10.85;;;5.25;;
78778;SDS011;68121;52.404;5.318;2023-04-24T07:00:16;8.65;;;4.10;;
78778;SDS011;68121;52.404;5.318;2023-04-24T07:02:42;8.80;;;5.13;;
78778;SDS011;68121;52.404;5.318;2023-04-24T07:05:08;10.43;;;4.75;;
78778;SDS011;68121;52.404;5.318;2023-04-24T07:07:34;8.23;;;4.32;;
78778;SDS011;68121;52.404;5.318;2023-04-24T07:10:04;8.30;;;4.22;;
78778;SDS011;68121;52.404;5.318;2023-04-24T07:12:30;13.65;;;5.68;;
78778;SDS011;68121;52.404;5.318;2023-04-24T07:14:57;8.43;;;3.85;;
78778;SDS011;68121;52.404;5.318;2023-04-24T07:17:23;10.25;;;4.10;;
78778;SDS011;68121;52.404;5.318;2023-04-24T07:19:49;12.63;;;4.32;;
78778;SDS011;68121;52.404;5.318;2023-04-24T07:22:15;11.10;;;4.60;;
78778;SDS011;68121;52.404;5.318;2023-04-24T07:24:43;12.95;;;4.90;;
78778;SDS011;68121;52.404;5.318;2023-04-24T07:27:09;12.50;;;4.32;;
78778;SDS011;68121;52.404;5.318;2023-04-24T07:29:35;9.35;;;4.35;;
78778;SDS011;68121;52.404;5.318;2023-04-24T07:32:02;10.98;;;5.07;;
78778;SDS011;68121;52.404;5.318;2023-04-24T07:34:28;10.20;;;4.15;;
78778;SDS011;68121;52.404;5.318;2023-04-24T07:36:54;8.48;;;3.70;;
78778;SDS011;68121;52.404;5.318;2023-04-24T07:39:20;7.97;;;3.83;;
78778;SDS011;68121;52.404;5.318;2023-04-24T07:41:46;12.30;;;4.72;;
78778;SDS011;68121;52.404;5.318;2023-04-24T07:44:12;10.27;;;3.85;;
78778;SDS011;68121;52.404;5.318;2023-04-24T07:46:38;12.65;;;4.80;;
78778;SDS011;68121;52.404;5.318;2023-04-24T07:49:05;9.27;;;4.35;;
78778;SDS011;68121;52.404;5.318;2023-04-24T07:51:31;10.65;;;4.85;;
78778;SDS011;68121;52.404;5.318;2023-04-24T07:54:00;11.55;;;4.63;;
78778;SDS011;68121;52.404;5.318;2023-04-24T07:56:26;8.68;;;3.95;;
78778;SDS011;68121;52.404;5.318;2023-04-24T07:58:52;10.88;;;3.92;;
78778;SDS011;68121;52.404;5.318;2023-04-24T08:01:18;9.30;;;4.32;;
78778;SDS011;68121;52.404;5.318;2023-04-24T08:03:44;12.52;;;4.57;;
78778;SDS011;68121;52.404;5.318;2023-04-24T08:06:10;8.25;;;3.75;;
78778;SDS011;68121;52.404;5.318;2023-04-24T08:08:36;7.47;;;3.42;;
78778;SDS011;68121;52.404;5.318;2023-04-24T08:11:02;8.68;;;4.13;;
78778;SDS011;68121;52.404;5.318;2023-04-24T08:13:29;9.25;;;4.90;;
78778;SDS011;68121;52.404;5.318;2023-04-24T08:15:56;9.43;;;4.40;;
78778;SDS011;68121;52.404;5.318;2023-04-24T08:18:22;15.38;;;2.88;;
78778;SDS011;68121;52.404;5.318;2023-04-24T08:20:48;7.68;;;2.65;;
78778;SDS011;68121;52.404;5.318;2023-04-24T08:23:14;16.50;;;3.40;;
78778;SDS011;68121;52.404;5.318;2023-04-24T08:25:40;9.75;;;2.40;;
78778;SDS011;68121;52.404;5.318;2023-04-24T08:28:06;17.80;;;3.15;;
78778;SDS011;68121;52.404;5.318;2023-04-24T08:30:35;11.45;;;2.22;;
78778;SDS011;68121;52.404;5.318;2023-04-24T08:33:01;9.70;;;2.28;;
78778;SDS011;68121;52.404;5.318;2023-04-24T08:35:27;13.95;;;2.28;;
78778;SDS011;68121;52.404;5.318;2023-04-24T08:37:53;9.07;;;1.98;;
78778;SDS011;68121;52.404;5.318;2023-04-24T08:40:22;9.45;;;2.05;;
78778;SDS011;68121;52.404;5.318;2023-04-24T08:42:54;12.05;;;1.92;;
78778;SDS011;68121;52.404;5.318;2023-04-24T08:45:22;9.38;;;3.20;;
78778;SDS011;68121;52.404;5.318;2023-04-24T08:47:49;8.05;;;1.70;;
78778;SDS011;68121;52.404;5.318;2023-04-24T08:50:17;13.50;;;2.38;;
78778;SDS011;68121;52.404;5.318;2023-04-24T08:52:43;8.82;;;1.70;;
78778;SDS011;68121;52.404;5.318;2023-04-24T08:55:09;11.00;;;2.00;;
78778;SDS011;68121;52.404;5.318;2023-04-24T08:57:36;7.60;;;1.90;;
78778;SDS011;68121;52.404;5.318;2023-04-24T09:00:05;10.65;;;2.30;;
78778;SDS011;68121;52.404;5.318;2023-04-24T09:02:32;12.95;;;2.03;;
78778;SDS011;68121;52.404;5.318;2023-04-24T09:05:00;8.55;;;1.85;;
78778;SDS011;68121;52.404;5.318;2023-04-24T09:07:26;6.68;;;1.55;;
78778;SDS011;68121;52.404;5.318;2023-04-24T09:09:54;6.38;;;1.65;;
78778;SDS011;68121;52.404;5.318;2023-04-24T09:12:21;2.78;;;1.10;;
78778;SDS011;68121;52.404;5.318;2023-04-24T09:14:47;5.32;;;1.25;;
78778;SDS011;68121;52.404;5.318;2023-04-24T09:17:14;9.57;;;1.90;;
78778;SDS011;68121;52.404;5.318;2023-04-24T09:19:40;8.25;;;1.73;;
78778;SDS011;68121;52.404;5.318;2023-04-24T09:22:07;6.00;;;1.55;;
78778;SDS011;68121;52.404;5.318;2023-04-24T09:24:33;3.90;;;1.67;;
78778;SDS011;68121;52.404;5.318;2023-04-24T09:27:00;6.72;;;1.42;;
78778;SDS011;68121;52.404;5.318;2023-04-24T09:29:27;9.93;;;1.63;;
78778;SDS011;68121;52.404;5.318;2023-04-24T09:31:53;9.63;;;1.52;;
78778;SDS011;68121;52.404;5.318;2023-04-24T09:34:23;4.60;;;1.58;;
78778;SDS011;68121;52.404;5.318;2023-04-24T09:36:50;7.40;;;1.58;;
78778;SDS011;68121;52.404;5.318;2023-04-24T09:39:17;9.23;;;1.48;;
78778;SDS011;68121;52.404;5.318;2023-04-24T09:41:53;5.60;;;1.58;;
78778;SDS011;68121;52.404;5.318;2023-04-24T09:44:24;7.82;;;1.40;;
78778;SDS011;68121;52.404;5.318;2023-04-24T09:46:52;6.53;;;1.75;;
78778;SDS011;68121;52.404;5.318;2023-04-24T09:49:24;6.13;;;1.80;;
78778;SDS011;68121;52.404;5.318;2023-04-24T09:52:02;8.18;;;1.65;;
78778;SDS011;68121;52.404;5.318;2023-04-24T09:54:32;6.85;;;2.22;;
78778;SDS011;68121;52.404;5.318;2023-04-24T09:56:58;3.53;;;1.05;;
78778;SDS011;68121;52.404;5.318;2023-04-24T09:59:25;5.93;;;1.27;;
78778;SDS011;68121;52.404;5.318;2023-04-24T10:01:52;6.03;;;1.25;;
78778;SDS011;68121;52.404;5.318;2023-04-24T10:04:18;9.60;;;1.40;;
78778;SDS011;68121;52.404;5.318;2023-04-24T10:06:50;6.25;;;1.48;;
78778;SDS011;68121;52.404;5.318;2023-04-24T10:09:18;2.97;;;1.30;;
78778;SDS011;68121;52.404;5.318;2023-04-24T10:11:47;8.02;;;1.80;;
78778;SDS011;68121;52.404;5.318;2023-04-24T10:14:15;8.25;;;1.60;;
78778;SDS011;68121;52.404;5.318;2023-04-24T10:16:42;12.43;;;1.83;;
78778;SDS011;68121;52.404;5.318;2023-04-24T10:19:09;5.45;;;1.33;;
78778;SDS011;68121;52.404;5.318;2023-04-24T10:21:36;4.18;;;1.20;;
78778;SDS011;68121;52.404;5.318;2023-04-24T10:24:08;2.78;;;1.15;;
78778;SDS011;68121;52.404;5.318;2023-04-24T10:26:34;5.32;;;1.48;;
78778;SDS011;68121;52.404;5.318;2023-04-24T10:29:01;6.18;;;1.58;;
78778;SDS011;68121;52.404;5.318;2023-04-24T10:31:27;2.08;;;0.80;;
78778;SDS011;68121;52.404;5.318;2023-04-24T10:33:57;3.78;;;0.88;;
78778;SDS011;68121;52.404;5.318;2023-04-24T10:36:25;4.72;;;1.00;;
78778;SDS011;68121;52.404;5.318;2023-04-24T10:38:54;2.50;;;0.60;;
78778;SDS011;68121;52.404;5.318;2023-04-24T10:41:22;3.80;;;0.68;;
78778;SDS011;68121;52.404;5.318;2023-04-24T10:46:52;2.35;;;0.70;;
78778;SDS011;68121;52.404;5.318;2023-04-24T10:49:30;2.17;;;0.50;;
78778;SDS011;68121;52.404;5.318;2023-04-24T10:52:01;1.33;;;0.93;;
78778;SDS011;68121;52.404;5.318;2023-04-24T10:54:34;1.65;;;0.77;;
78778;SDS011;68121;52.404;5.318;2023-04-24T10:59:43;3.67;;;0.63;;
78778;SDS011;68121;52.404;5.318;2023-04-24T11:02:10;3.65;;;0.70;;
78778;SDS011;68121;52.404;5.318;2023-04-24T11:04:36;2.53;;;0.40;;
78778;SDS011;68121;52.404;5.318;2023-04-24T11:07:02;2.58;;;0.75;;
78778;SDS011;68121;52.404;5.318;2023-04-24T11:09:30;4.53;;;0.85;;
78778;SDS011;68121;52.404;5.318;2023-04-24T11:12:06;3.13;;;0.68;;
78778;SDS011;68121;52.404;5.318;2023-04-24T11:20:08;3.72;;;0.75;;
78778;SDS011;68121;52.404;5.318;2023-04-24T11:22:41;2.17;;;0.50;;
78778;SDS011;68121;52.404;5.318;2023-04-24T11:25:08;1.05;;;0.60;;
78778;SDS011;68121;52.404;5.318;2023-04-24T11:27:40;1.52;;;0.80;;
78778;SDS011;68121;52.404;5.318;2023-04-24T11:30:11;4.43;;;0.50;;
78778;SDS011;68121;52.404;5.318;2023-04-24T11:32:42;3.05;;;0.30;;
78778;SDS011;68121;52.404;5.318;2023-04-24T11:35:16;4.05;;;0.43;;
78778;SDS011;68121;52.404;5.318;2023-04-24T11:37:44;1.27;;;0.40;;
78778;SDS011;68121;52.404;5.318;2023-04-24T11:40:12;2.25;;;0.60;;
78778;SDS011;68121;52.404;5.318;2023-04-24T11:42:42;1.63;;;0.35;;
78778;SDS011;68121;52.404;5.318;2023-04-24T11:45:13;2.10;;;0.20;;
78778;SDS011;68121;52.404;5.318;2023-04-24T11:47:53;2.78;;;0.40;;
78778;SDS011;68121;52.404;5.318;2023-04-24T11:50:21;6.43;;;0.52;;
78778;SDS011;68121;52.404;5.318;2023-04-24T11:52:49;4.72;;;1.10;;
78778;SDS011;68121;52.404;5.318;2023-04-24T12:00:21;3.47;;;0.65;;
78778;SDS011;68121;52.404;5.318;2023-04-24T12:02:49;1.52;;;0.40;;
78778;SDS011;68121;52.404;5.318;2023-04-24T12:05:19;4.82;;;0.65;;
78778;SDS011;68121;52.404;5.318;2023-04-24T12:07:56;4.80;;;0.50;;
78778;SDS011;68121;52.404;5.318;2023-04-24T12:10:22;2.50;;;0.40;;
78778;SDS011;68121;52.404;5.318;2023-04-24T12:12:51;3.03;;;0.60;;
78778;SDS011;68121;52.404;5.318;2023-04-24T12:15:18;3.22;;;0.73;;
78778;SDS011;68121;52.404;5.318;2023-04-24T12:17:45;4.32;;;0.77;;
78778;SDS011;68121;52.404;5.318;2023-04-24T12:20:12;4.28;;;0.70;;
78778;SDS011;68121;52.404;5.318;2023-04-24T12:22:52;2.70;;;0.70;;
78778;SDS011;68121;52.404;5.318;2023-04-24T12:25:21;3.97;;;0.80;;
78778;SDS011;68121;52.404;5.318;2023-04-24T12:28:08;4.03;;;1.60;;
78778;SDS011;68121;52.404;5.318;2023-04-24T12:30:40;2.22;;;0.68;;
78778;SDS011;68121;52.404;5.318;2023-04-24T12:33:10;4.43;;;1.00;;
78778;SDS011;68121;52.404;5.318;2023-04-24T12:35:36;3.55;;;1.00;;
78778;SDS011;68121;52.404;5.318;2023-04-24T12:38:05;4.85;;;0.85;;
78778;SDS011;68121;52.404;5.318;2023-04-24T12:40:33;3.70;;;0.95;;
78778;SDS011;68121;52.404;5.318;2023-04-24T12:42:59;7.80;;;1.10;;
78778;SDS011;68121;52.404;5.318;2023-04-24T12:45:25;5.43;;;1.15;;
78778;SDS011;68121;52.404;5.318;2023-04-24T12:47:53;6.80;;;1.00;;
78778;SDS011;68121;52.404;5.318;2023-04-24T12:50:19;6.10;;;1.20;;
78778;SDS011;68121;52.404;5.318;2023-04-24T12:52:45;8.32;;;2.10;;
78778;SDS011;68121;52.404;5.318;2023-04-24T12:55:11;5.20;;;1.30;;
78778;SDS011;68121;52.404;5.318;2023-04-24T12:57:38;11.00;;;2.33;;
78778;SDS011;68121;52.404;5.318;2023-04-24T13:00:06;6.80;;;1.58;;
78778;SDS011;68121;52.404;5.318;2023-04-24T13:02:34;9.70;;;2.00;;
78778;SDS011;68121;52.404;5.318;2023-04-24T13:05:00;11.90;;;2.42;;
78778;SDS011;68121;52.404;5.318;2023-04-24T13:07:26;5.75;;;1.85;;
78778;SDS011;68121;52.404;5.318;2023-04-24T13:09:54;6.43;;;1.73;;
78778;SDS011;68121;52.404;5.318;2023-04-24T13:12:21;11.15;;;1.83;;
78778;SDS011;68121;52.404;5.318;2023-04-24T13:14:49;7.63;;;2.10;;
78778;SDS011;68121;52.404;5.318;2023-04-24T13:17:15;7.85;;;1.52;;
78778;SDS011;68121;52.404;5.318;2023-04-24T13:19:42;6.55;;;1.90;;
78778;SDS011;68121;52.404;5.318;2023-04-24T13:22:10;12.98;;;1.80;;
78778;SDS011;68121;52.404;5.318;2023-04-24T13:24:37;6.15;;;1.25;;
78778;SDS011;68121;52.404;5.318;2023-04-24T13:27:05;10.13;;;1.92;;
78778;SDS011;68121;52.404;5.318;2023-04-24T13:29:31;7.25;;;1.70;;
78778;SDS011;68121;52.404;5.318;2023-04-24T13:31:57;11.27;;;1.42;;
78778;SDS011;68121;52.404;5.318;2023-04-24T13:34:23;8.35;;;2.15;;
78778;SDS011;68121;52.404;5.318;2023-04-24T13:36:51;4.82;;;1.35;;
78778;SDS011;68121;52.404;5.318;2023-04-24T13:39:21;11.95;;;2.30;;
78778;SDS011;68121;52.404;5.318;2023-04-24T13:41:48;8.57;;;2.50;;
78778;SDS011;68121;52.404;5.318;2023-04-24T13:44:15;10.77;;;2.08;;
78778;SDS011;68121;52.404;5.318;2023-04-24T13:46:42;9.23;;;2.25;;
78778;SDS011;68121;52.404;5.318;2023-04-24T13:49:10;7.13;;;1.55;;
78778;SDS011;68121;52.404;5.318;2023-04-24T13:51:38;11.10;;;1.88;;
78778;SDS011;68121;52.404;5.318;2023-04-24T13:54:04;8.88;;;2.00;;
78778;SDS011;68121;52.404;5.318;2023-04-24T13:56:30;6.25;;;2.00;;
78778;SDS011;68121;52.404;5.318;2023-04-24T13:58:56;6.97;;;1.42;;
78778;SDS011;68121;52.404;5.318;2023-04-24T14:01:22;3.30;;;1.05;;
78778;SDS011;68121;52.404;5.318;2023-04-24T14:03:51;6.00;;;1.10;;
78778;SDS011;68121;52.404;5.318;2023-04-24T14:06:18;8.45;;;1.33;;
78778;SDS011;68121;52.404;5.318;2023-04-24T14:08:45;7.90;;;1.67;;
78778;SDS011;68121;52.404;5.318;2023-04-24T14:11:12;8.23;;;1.50;;
78778;SDS011;68121;52.404;5.318;2023-04-24T14:13:38;6.40;;;1.60;;
78778;SDS011;68121;52.404;5.318;2023-04-24T14:16:06;10.68;;;2.40;;
78778;SDS011;68121;52.404;5.318;2023-04-24T14:18:32;6.18;;;1.33;;
78778;SDS011;68121;52.404;5.318;2023-04-24T14:20:58;6.97;;;1.20;;
78778;SDS011;68121;52.404;5.318;2023-04-24T14:23:24;5.03;;;1.42;;
78778;SDS011;68121;52.404;5.318;2023-04-24T14:25:50;5.10;;;1.80;;
78778;SDS011;68121;52.404;5.318;2023-04-24T14:28:21;6.35;;;1.48;;
78778;SDS011;68121;52.404;5.318;2023-04-24T14:30:47;8.07;;;1.83;;
78778;SDS011;68121;52.404;5.318;2023-04-24T14:33:14;6.43;;;1.65;;
78778;SDS011;68121;52.404;5.318;2023-04-24T14:35:40;9.35;;;3.00;;
78778;SDS011;68121;52.404;5.318;2023-04-24T14:38:10;7.60;;;1.50;;
78778;SDS011;68121;52.404;5.318;2023-04-24T14:40:36;6.93;;;2.42;;
78778;SDS011;68121;52.404;5.318;2023-04-24T14:43:03;6.35;;;1.35;;
78778;SDS011;68121;52.404;5.318;2023-04-24T14:45:29;11.13;;;1.80;;
78778;SDS011;68121;52.404;5.318;2023-04-24T14:47:55;9.68;;;1.90;;
78778;SDS011;68121;52.404;5.318;2023-04-24T14:50:22;5.45;;;1.58;;
78778;SDS011;68121;52.404;5.318;2023-04-24T14:52:48;7.25;;;2.33;;
78778;SDS011;68121;52.404;5.318;2023-04-24T14:55:14;7.03;;;1.60;;
78778;SDS011;68121;52.404;5.318;2023-04-24T14:57:40;7.97;;;1.40;;
78778;SDS011;68121;52.404;5.318;2023-04-24T15:00:06;10.18;;;2.13;;